Time;durP1;ratioP1;P1;durP2;ratioP2;P2;SDS_P1;SDS_P2;PMS_P1;PMS_P2;Temp;Humidity;BMP_temperature;BMP_pressure;BME280_temperature;BME280_humidity;BME280_pressure;Samples;Min_cycle;Max_cycle;Signal;HPM_P1;HPM_P2
2022/03/11 00:06:09;;;;;;;5.03;3.80;;;9.90;26.20;;;11.40;24.13;98986.16;4828994;29;115382;-82
2022/03/11 00:09:13;;;;;;;6.07;4.00;;;10.90;26.30;;;11.38;23.83;98980.13;4828084;29;124683;-87
2022/03/11 00:17:52;;;;;;;6.20;4.33;;;10.70;26.60;;;11.25;24.07;98972.69;5518871;23;114659;-79
2022/03/11 00:21:35;;;;;;;6.03;4.03;;;10.50;26.50;;;11.24;24.25;98969.09;4824991;29;124818;-80
2022/03/11 00:44:10;;;;;;;5.30;3.90;;;8.90;27.10;;;10.92;25.14;98964.59;4810106;29;115263;-83
2022/03/11 00:50:19;;;;;;;5.70;4.10;;;11.70;28.40;;;10.88;25.41;98969.13;4827475;29;125619;-87
2022/03/11 00:56:30;;;;;;;5.47;3.77;;;9.30;27.80;;;10.81;25.79;98968.72;4828408;29;115322;-80
2022/03/11 01:02:39;;;;;;;6.87;4.90;;;9.90;28.40;;;10.75;25.82;98961.69;4827307;29;125140;-81
2022/03/11 01:08:48;;;;;;;6.37;4.67;;;11.30;28.90;;;10.65;25.68;98967.41;4828213;29;115332;-78
2022/03/11 01:53:22;;;;;;;6.60;5.37;;;9.60;30.40;;;10.17;27.38;98954.81;5782600;23;98766;-79
2022/03/11 01:59:31;;;;;;;9.83;4.60;;;8.10;29.60;;;10.06;27.74;98954.19;4848289;29;116228;-82
2022/03/11 02:05:39;;;;;;;8.50;5.50;;;8.60;30.20;;;10.02;27.92;98947.66;4849213;29;124781;-78
2022/03/11 02:11:48;;;;;;;7.90;5.13;;;7.90;30.00;;;9.94;28.23;98951.13;4849273;29;114380;-79
2022/03/11 02:17:57;;;;;;;7.10;5.40;;;8.90;31.10;;;9.87;28.01;98945.97;4854733;29;124915;-80
2022/03/11 02:24:07;;;;;;;8.93;5.70;;;8.00;30.60;;;9.78;28.75;98946.97;4849431;29;114933;-82
2022/03/11 02:30:21;;;;;;;6.83;5.53;;;8.70;31.50;;;9.73;28.46;98934.13;4848570;29;124789;-89
2022/03/11 02:32:48;;;;;;;9.97;5.73;;;9.40;32.20;;;9.71;28.70;98936.34;4829152;29;114205;-89
2022/03/11 02:38:57;;;;;;;8.70;6.57;;;9.10;32.40;;;9.61;29.01;98942.84;4848651;29;125171;-78
2022/03/11 02:45:10;;;;;;;11.10;6.50;;;8.10;31.80;;;9.52;29.13;98936.41;4848805;29;115320;-79
2022/03/11 02:51:21;;;;;;;8.83;6.33;;;7.60;31.70;;;9.41;29.26;98937.69;4867207;28;125057;-80
2022/03/11 02:53:48;;;;;;;10.80;7.73;;;8.50;32.30;;;9.38;29.32;98938.31;4866736;28;124311;-80
2022/03/11 02:59:56;;;;;;;10.10;7.50;;;7.50;32.00;;;9.33;29.48;98930.13;4867317;29;116143;-80
2022/03/11 03:06:06;;;;;;;14.13;8.80;;;8.40;33.30;;;9.12;29.94;98926.88;4865828;29;124828;-80
2022/03/11 03:12:16;;;;;;;11.13;8.10;;;7.30;32.60;;;9.03;30.15;98937.75;4848323;29;114980;-79
2022/03/11 03:53:56;;;;;;;16.77;10.30;;;7.80;35.20;;;8.35;31.27;98931.47;5304777;23;97662;-78
2022/03/11 04:00:06;;;;;;;14.20;9.43;;;6.30;34.10;;;8.25;31.36;98931.63;4828907;29;124847;-77
2022/03/11 04:06:18;;;;;;;12.10;7.70;;;6.60;34.40;;;8.22;31.46;98926.72;4847407;29;115226;-78
2022/03/11 04:12:27;;;;;;;11.70;8.10;;;7.60;35.20;;;8.24;31.18;98931.91;4841769;29;124733;-80
2022/03/11 04:18:35;;;;;;;10.90;7.70;;;6.40;34.20;;;8.16;31.27;98925.09;4828704;29;114996;-84
2022/03/11 04:24:46;;;;;;;17.17;8.57;;;6.40;34.30;;;8.08;30.99;98928.50;4809994;29;124895;-80
2022/03/11 04:30:55;;;;;;;13.00;8.43;;;7.00;34.90;;;8.00;31.77;98929.16;4810144;29;115997;-78
2022/03/11 04:37:04;;;;;;;12.57;8.50;;;6.70;34.70;;;7.93;31.68;98930.31;4809507;29;124805;-79
2022/03/11 04:43:13;;;;;;;11.73;7.30;;;7.40;35.40;;;7.85;31.49;98939.22;4810019;29;115029;-79
2022/03/11 04:49:22;;;;;;;13.87;9.30;;;6.40;34.50;;;7.78;31.58;98941.47;4823067;29;124692;-83
2022/03/11 04:59:32;;;;;;;17.80;10.40;;;7.20;35.30;;;7.53;31.18;98934.31;4827498;29;125050;-80
2022/03/11 05:05:43;;;;;;;13.20;8.43;;;6.90;35.30;;;7.48;31.60;98932.41;4828240;29;115272;-83
2022/03/11 05:11:51;;;;;;;11.70;7.47;;;5.40;34.00;;;7.42;31.53;98930.03;4828042;29;125077;-78
2022/03/11 05:18:00;;;;;;;11.37;7.70;;;5.60;34.20;;;7.37;31.94;98928.13;4827888;29;115338;-83
2022/03/11 05:24:11;;;;;;;11.47;7.30;;;5.50;34.10;;;7.35;31.79;98941.31;4827664;29;127115;-80
2022/03/11 05:30:20;;;;;;;13.50;7.50;;;6.30;34.70;;;7.34;31.31;98949.88;4810610;29;116401;-78
2022/03/11 05:36:29;;;;;;;13.33;7.20;;;5.20;33.80;;;7.29;31.37;98959.78;4812329;29;125084;-82
2022/03/11 05:42:38;;;;;;;12.53;7.53;;;5.90;34.20;;;7.17;31.42;98953.00;4812536;29;115235;-85
2022/03/11 05:48:46;;;;;;;11.07;7.00;;;6.50;34.60;;;7.07;30.91;98952.00;4810927;29;125139;-79
2022/03/11 05:54:55;;;;;;;9.50;5.80;;;5.30;33.60;;;7.06;31.38;98952.25;4830434;29;115281;-79
2022/03/11 06:01:04;;;;;;;8.83;6.40;;;5.60;33.70;;;6.98;30.74;98939.94;4829731;29;124967;-85
2022/03/11 06:03:32;;;;;;;10.30;6.97;;;8.00;35.60;;;7.00;30.52;98942.44;4798159;29;124316;-85
2022/03/11 06:09:41;;;;;;;9.03;5.63;;;5.00;33.10;;;6.99;30.50;98949.84;4830423;29;115055;-82
2022/03/11 06:15:50;;;;;;;9.23;5.73;;;6.30;34.30;;;7.67;30.10;98956.44;4811383;29;123965;-88
2022/03/11 06:21:59;;;;;;;9.80;6.57;;;6.20;33.60;;;7.66;29.94;98949.31;4818724;29;115014;-85
2022/03/11 06:28:09;;;;;;;10.87;6.53;;;6.80;33.30;;;7.53;29.80;98950.81;4825143;29;124128;-85
2022/03/11 06:34:20;;;;;;;9.70;5.40;;;6.80;33.20;;;7.56;30.47;98955.72;4811921;29;115027;-78
2022/03/11 06:37:33;;;;;;;8.80;5.33;;;6.50;33.30;;;7.65;30.59;98953.16;4801012;29;123462;-85
2022/03/11 06:40:01;;;;;;;9.80;5.07;;;6.10;33.40;;;7.68;30.28;98963.56;4807471;29;123299;-87
2022/03/11 06:46:10;;;;;;;10.50;5.30;;;7.00;34.30;;;7.81;30.42;98962.91;4826609;29;115038;-87
2022/03/11 06:48:37;;;;;;;7.60;5.20;;;5.80;32.80;;;7.85;29.97;98952.97;4818732;29;123778;-85
2022/03/11 06:51:09;;;;;;;8.10;4.83;;;6.90;33.60;;;7.87;30.02;98948.00;4810912;29;124248;-84
2022/03/11 06:53:56;;;;;;;8.23;5.00;;;6.10;32.60;;;7.87;29.47;98958.16;4814404;29;114807;-84
2022/03/11 06:56:42;;;;;;;8.70;5.47;;;7.10;33.00;;;7.84;29.34;98956.00;4815379;29;117120;-85
2022/03/11 06:59:12;;;;;;;7.07;5.40;;;6.40;32.40;;;7.86;29.79;98964.78;4811396;29;125856;-85
2022/03/11 07:01:39;;;;;;;7.07;4.57;;;6.00;32.00;;;7.89;29.53;98954.00;4809237;29;124040;-85
2022/03/11 07:11:32;;;;;;;7.90;5.10;;;5.90;31.50;;;7.99;29.18;98957.78;4824496;29;124496;-85
2022/03/11 07:14:54;;;;;;;7.20;4.40;;;5.80;31.20;;;8.04;28.98;98957.75;4808362;29;122368;-86
2022/03/11 07:18:18;;;;;;;6.23;4.93;;;6.20;31.40;;;8.09;29.15;98964.00;4829854;29;113706;-82
2022/03/11 07:24:28;;;;;;;7.63;5.40;;;5.80;30.70;;;8.09;28.54;98966.75;4810910;29;125024;-81
2022/03/11 07:30:36;;;;;;;8.40;5.10;;;6.00;30.80;;;8.16;28.51;98969.16;4810164;29;117569;-84
2022/03/11 07:36:45;;;;;;;7.97;5.00;;;7.40;31.70;;;8.22;28.42;98970.75;4809793;29;125092;-92
2022/03/11 07:42:54;;;;;;;8.40;5.67;;;7.50;31.70;;;8.37;28.31;98972.47;4828174;29;115309;-91
2022/03/11 07:49:03;;;;;;;7.33;4.93;;;6.50;30.50;;;8.36;28.35;98966.16;4827653;29;124365;-91
2022/03/11 07:52:15;;;;;;;9.63;4.93;;;7.50;31.20;;;8.46;28.42;98967.16;4812431;29;124459;-90
2022/03/11 07:54:45;;;;;;;6.87;4.60;;;6.70;30.70;;;8.51;28.23;98964.34;4823514;29;114812;-89
2022/03/11 07:57:50;;;;;;;10.13;5.17;;;8.70;32.40;;;8.59;28.20;98969.22;4796491;29;112348;-90
2022/03/11 08:03:59;;;;;;;6.27;4.60;;;7.10;30.80;;;8.70;28.26;98965.19;4814375;29;125000;-90
2022/03/11 08:10:09;;;;;;;6.57;4.60;;;7.70;31.00;;;8.84;27.87;98960.63;4809301;29;115071;-86
2022/03/11 08:16:18;;;;;;;7.10;4.70;;;6.90;30.20;;;8.95;27.76;98952.22;4810285;29;124729;-83
2022/03/11 08:22:27;;;;;;;8.03;5.20;;;8.30;31.30;;;9.04;27.67;98951.22;4810618;29;114867;-81
2022/03/11 08:24:55;;;;;;;10.93;6.43;;;7.90;30.80;;;9.03;27.81;98955.09;4809482;29;124136;-93
2022/03/11 08:28:22;;;;;;;10.00;6.17;;;8.20;31.10;;;9.05;27.91;98957.53;4806705;29;124386;-80
2022/03/11 08:31:09;;;;;;;8.77;5.97;;;8.20;31.20;;;9.06;28.31;98960.00;4805817;29;115932;-81
2022/03/11 08:34:15;;;;;;;11.87;6.27;;;8.30;31.40;;;9.12;28.13;98957.19;4805301;29;115438;-90
2022/03/11 08:40:26;;;;;;;8.90;4.90;;;8.40;31.50;;;9.23;27.90;98953.97;4820463;29;124940;-92
2022/03/11 08:46:36;;;;;;;7.40;5.80;;;8.50;31.50;;;9.29;28.17;98950.03;4828171;29;115017;-88
2022/03/11 08:49:06;;;;;;;9.33;6.10;;;8.50;31.70;;;9.33;28.04;98952.19;4811356;29;124636;-88
2022/03/11 08:51:39;;;;;;;9.57;6.20;;;10.10;32.70;;;9.34;28.11;98942.78;4816279;29;123255;-89
2022/03/11 08:54:46;;;;;;;8.63;5.93;;;8.50;31.40;;;9.37;27.96;98936.66;4824880;29;114825;-88
2022/03/11 09:00:55;;;;;;;9.40;6.10;;;8.60;31.60;;;9.42;27.96;98933.81;4818595;29;125118;-90
2022/03/11 09:07:06;;;;;;;13.23;6.83;;;8.10;31.20;;;9.46;28.23;98926.59;4828237;29;115255;-84
2022/03/11 09:13:14;;;;;;;11.57;7.10;;;7.30;30.40;;;9.48;28.10;98919.66;4814633;29;125460;-86
2022/03/11 09:24:03;;;;;;;14.30;6.53;;;10.00;31.50;;;9.58;27.79;98909.53;4809660;29;114990;-81
2022/03/11 09:34:32;;;;;;;9.40;6.67;;;8.50;31.30;;;9.56;28.05;98898.00;4808939;29;116191;-84
2022/03/11 09:40:46;;;;;;;7.13;5.30;;;7.30;30.20;;;9.69;27.92;98898.00;4827562;29;125068;-85
2022/03/11 09:46:56;;;;;;;9.60;5.73;;;8.60;31.10;;;9.89;27.79;98882.22;4827650;29;114669;-83
2022/03/11 09:53:06;;;;;;;11.43;6.90;;;9.20;31.40;;;9.96;27.56;98880.66;4826742;29;125320;-92
2022/03/11 09:55:32;;;;;;;9.57;5.97;;;8.70;31.00;;;10.03;27.76;98883.03;4819011;29;123170;-92
2022/03/11 09:58:00;;;;;;;7.83;5.57;;;9.20;32.00;;;10.08;27.75;98874.66;4808806;29;114959;-91
2022/03/11 10:00:48;;;;;;;9.83;6.60;;;9.40;31.30;;;10.10;27.44;98871.56;4806555;29;113782;-91
2022/03/11 10:06:56;;;;;;;12.00;7.33;;;8.20;30.10;;;10.02;27.35;98870.38;4825156;29;124177;-90
2022/03/11 10:13:10;;;;;;;10.90;6.40;;;9.40;31.10;;;10.00;27.49;98878.13;4826108;29;114988;-89
2022/03/11 10:15:56;;;;;;;7.97;5.40;;;9.30;31.20;;;10.10;27.41;98875.16;4797576;29;124136;-91
2022/03/11 10:22:05;;;;;;;10.70;6.63;;;9.50;31.40;;;10.25;27.73;98870.44;4811995;29;115204;-83
2022/03/11 10:25:28;;;;;;;11.63;7.53;;;9.50;31.10;;;10.32;27.71;98863.41;4809284;29;113876;-91
2022/03/11 10:31:45;;;;;;;11.77;7.60;;;8.70;30.70;;;10.48;27.69;98866.66;4806845;29;124764;-93
2022/03/11 10:34:26;;;;;;;12.47;7.47;;;9.80;31.70;;;10.53;27.35;98863.78;4808317;29;114744;-91
2022/03/11 10:41:00;;;;;;;7.63;5.90;;;9.80;31.60;;;10.77;27.46;98865.44;4810579;29;124085;-91
2022/03/11 10:43:46;;;;;;;10.70;5.83;;;11.70;32.20;;;10.90;27.17;98861.81;4821172;29;123686;-92
2022/03/11 10:46:32;;;;;;;12.07;7.43;;;10.10;30.90;;;11.03;27.24;98855.41;4821640;29;114281;-91
2022/03/11 10:49:39;;;;;;;12.03;6.73;;;10.20;30.60;;;11.14;27.47;98855.16;4813078;29;113181;-92
2022/03/11 10:52:06;;;;;;;12.90;7.57;;;9.00;30.40;;;11.22;27.08;98848.88;4790291;29;123420;-91
2022/03/11 10:54:34;;;;;;;9.00;6.40;;;10.50;30.50;;;11.35;27.45;98852.69;4807154;29;123813;-92
2022/03/11 10:57:10;;;;;;;9.63;6.60;;;10.60;30.50;;;11.48;26.88;98843.50;4808976;29;113357;-92
2022/03/11 10:59:38;;;;;;;11.60;6.67;;;10.60;30.50;;;11.62;26.61;98843.41;4796417;29;113878;-92
2022/03/11 11:02:26;;;;;;;12.33;7.77;;;10.80;30.50;;;11.71;26.79;98844.25;4807421;29;123604;-91
2022/03/11 11:04:55;;;;;;;11.47;7.50;;;10.80;30.10;;;11.80;26.61;98842.34;4805196;29;125847;-91
2022/03/11 11:07:41;;;;;;;12.67;8.10;;;9.90;30.00;;;11.87;26.33;98834.41;4795265;29;115051;-91
2022/03/11 11:13:50;;;;;;;10.57;7.32;;;11.30;30.50;;;12.78;26.18;98823.66;4817423;29;124330;-90
2022/03/11 11:16:55;;;;;;;9.83;7.60;;;11.90;30.00;;;12.75;25.96;98814.03;4813195;29;125499;-92
2022/03/11 11:19:27;;;;;;;10.50;7.67;;;11.60;29.50;;;12.80;25.99;98810.28;4808169;29;114112;-92
2022/03/11 11:22:13;;;;;;;11.93;7.03;;;12.00;29.70;;;12.88;25.86;98816.97;4799861;29;113688;-91
2022/03/11 11:24:41;;;;;;;11.67;7.47;;;12.00;29.70;;;12.96;25.97;98830.00;4800733;29;123195;-91
2022/03/11 11:27:30;;;;;;;11.33;7.27;;;12.00;29.60;;;13.04;25.59;98815.31;4801304;29;123649;-92
2022/03/11 11:29:57;;;;;;;14.87;7.20;;;12.20;29.60;;;13.17;25.90;98806.00;4794927;29;116346;-92
2022/03/11 11:32:25;;;;;;;10.20;6.73;;;12.30;29.70;;;13.30;25.88;98801.44;4792972;29;113955;-93
2022/03/11 11:35:37;;;;;;;12.67;7.60;;;12.50;29.60;;;13.40;25.31;98792.72;4800308;29;123939;-90
2022/03/11 11:38:27;;;;;;;11.30;7.27;;;12.60;29.40;;;13.54;25.40;98787.00;4792019;29;124360;-88
2022/03/11 11:44:40;;;;;;;12.10;8.10;;;12.90;29.10;;;13.81;25.02;98780.19;4810533;29;114432;-92
2022/03/11 11:47:31;;;;;;;10.07;7.27;;;13.00;29.10;;;13.98;24.80;98776.47;4804389;29;123335;-90
2022/03/11 11:50:13;;;;;;;11.13;7.97;;;13.20;29.10;;;14.14;24.88;98771.97;4788085;29;123016;-89
2022/03/11 11:52:53;;;;;;;9.47;6.50;;;13.30;29.10;;;14.34;24.85;98758.41;4773586;29;114344;-90
2022/03/11 11:55:21;;;;;;;10.13;6.80;;;13.50;29.20;;;14.51;24.58;98758.31;4782639;29;113226;-92
2022/03/11 11:57:52;;;;;;;12.03;7.47;;;13.60;29.00;;;14.64;24.44;98755.59;4795087;29;97383;-93
2022/03/11 12:00:30;;;;;;;8.30;6.70;;;13.80;29.00;;;14.80;24.47;98751.03;4804356;29;124103;-94
2022/03/11 12:02:59;;;;;;;9.93;7.13;;;14.00;29.10;;;14.93;23.93;98738.78;4802048;29;112513;-94
2022/03/11 12:06:03;;;;;;;11.07;7.83;;;14.10;28.60;;;15.04;23.94;98741.94;4777145;29;112403;-93
2022/03/11 12:09:27;;;;;;;10.70;7.20;;;14.20;28.40;;;15.18;23.84;98738.88;4805804;29;123705;-92
2022/03/11 12:11:54;;;;;;;10.63;7.60;;;14.40;28.50;;;15.31;23.80;98737.72;4812548;29;123140;-89
2022/03/11 12:14:24;;;;;;;12.23;8.23;;;14.50;28.40;;;15.43;23.48;98740.53;4819759;29;114116;-94
2022/03/11 12:17:10;;;;;;;15.33;7.50;;;14.60;28.10;;;15.53;23.56;98732.88;4807351;29;113832;-91
2022/03/11 12:19:56;;;;;;;11.53;8.00;;;14.80;28.00;;;15.65;23.18;98730.91;4811526;29;124815;-92
2022/03/11 12:22:54;;;;;;;10.87;7.43;;;14.90;27.80;;;15.76;23.36;98734.06;4789296;29;124277;-93
2022/03/11 12:25:58;;;;;;;8.87;7.07;;;15.00;28.00;;;15.96;23.27;98725.94;4786872;29;113657;-92
2022/03/11 12:28:46;;;;;;;12.13;8.13;;;15.20;28.10;;;16.11;22.97;98717.66;4803475;29;115333;-92
2022/03/11 12:31:31;;;;;;;10.50;7.60;;;15.30;27.60;;;16.25;22.83;98725.66;4785067;29;124531;-93
2022/03/11 12:34:17;;;;;;;9.87;7.40;;;15.50;27.70;;;16.41;22.99;98708.19;4788636;29;122897;-93
2022/03/11 12:36:48;;;;;;;9.63;6.83;;;15.60;27.70;;;16.59;23.02;98703.94;4779623;29;113999;-93
2022/03/11 12:39:16;;;;;;;8.57;6.40;;;15.80;28.00;;;16.84;22.79;98701.06;4798102;29;113356;-93
2022/03/11 12:41:43;;;;;;;7.47;5.80;;;15.90;28.10;;;17.04;22.76;98694.44;4791182;29;123997;-92
2022/03/11 12:44:11;;;;;;;7.80;6.40;;;16.10;28.00;;;17.25;22.80;98694.19;4788495;29;123376;-94
2022/03/11 12:46:39;;;;;;;7.80;5.37;;;16.30;28.00;;;17.46;22.60;98688.31;4775831;29;113529;-94
2022/03/11 12:49:07;;;;;;;6.90;4.57;;;16.50;28.00;;;17.64;22.34;98681.19;4786048;29;114435;-94
2022/03/11 12:51:34;;;;;;;7.70;6.10;;;16.70;28.00;;;17.79;22.16;98671.22;4775573;29;123887;-95
2022/03/11 12:54:15;;;;;;;8.10;6.30;;;16.80;27.50;;;17.89;21.74;98664.22;4784692;29;123576;-93
2022/03/11 12:57:01;;;;;;;8.13;6.70;;;17.00;27.30;;;18.01;21.79;98669.72;4793564;29;113593;-93
2022/03/11 12:59:46;;;;;;;8.67;6.70;;;17.10;27.20;;;18.12;21.61;98663.53;4806677;29;113738;-93
2022/03/11 13:02:32;;;;;;;7.87;5.93;;;17.30;27.00;;;18.25;21.79;98653.84;4776954;29;124269;-93
2022/03/11 13:05:18;;;;;;;8.87;6.70;;;17.40;27.10;;;18.38;21.49;98652.53;4773739;29;124029;-94
2022/03/11 13:07:45;;;;;;;7.70;5.73;;;17.60;27.00;;;18.57;21.63;98653.69;4784490;29;114242;-93
2022/03/11 13:10:15;;;;;;;6.20;5.17;;;17.70;27.20;;;18.75;21.58;98657.66;4769297;29;113587;-92
2022/03/11 13:12:43;;;;;;;8.50;7.20;;;17.80;27.20;;;18.91;21.12;98646.38;4790294;29;126640;-93
2022/03/11 13:15:22;;;;;;;7.33;6.30;;;18.00;26.70;;;19.01;21.01;98647.75;4799717;29;124334;-92
2022/03/11 13:18:04;;;;;;;7.77;5.90;;;18.10;26.70;;;19.19;21.03;98643.28;4791080;29;115211;-93
2022/03/11 13:20:52;;;;;;;7.93;5.20;;;18.30;26.90;;;19.43;21.05;98642.88;4800720;29;114002;-94
2022/03/11 13:23:23;;;;;;;6.33;4.67;;;18.50;26.80;;;19.62;21.04;98621.56;4803332;29;123821;-92
2022/03/11 13:25:57;;;;;;;5.27;4.30;;;18.70;26.90;;;19.82;20.87;98613.84;4799872;29;123883;-92
2022/03/11 13:28:27;;;;;;;5.60;4.37;;;18.90;26.90;;;19.99;20.90;98618.13;4793089;29;114702;-92
2022/03/11 13:30:57;;;;;;;6.57;5.00;;;19.10;26.90;;;20.19;20.52;98610.34;4773620;29;114260;-91
2022/03/11 13:33:28;;;;;;;6.70;5.27;;;19.30;26.70;;;20.35;20.32;98615.75;4795008;29;125758;-91
2022/03/11 13:36:14;;;;;;;7.33;4.90;;;19.40;26.60;;;20.51;20.53;98610.72;4767373;29;123204;-93
2022/03/11 13:39:03;;;;;;;8.60;5.90;;;19.60;26.50;;;20.64;20.24;98606.50;4794801;29;113687;-92
2022/03/11 13:42:02;;;;;;;7.43;5.27;;;19.80;26.20;;;20.80;20.30;98605.47;4775126;29;113091;-94
2022/03/11 13:44:38;;;;;;;5.00;4.23;;;20.00;26.30;;;21.01;20.08;98604.84;4778011;29;123080;-93
2022/03/11 13:47:19;;;;;;;5.70;4.40;;;20.10;26.40;;;21.20;20.13;98601.81;4763087;29;122437;-93
2022/03/11 13:49:50;;;;;;;5.50;4.63;;;20.30;26.30;;;21.38;20.12;98594.34;4783437;29;114788;-91
2022/03/11 13:52:25;;;;;;;5.90;4.93;;;20.50;26.30;;;21.53;19.56;98586.84;4782237;29;113950;-91
2022/03/11 13:55:06;;;;;;;6.17;5.03;;;20.70;26.00;;;21.73;19.60;98589.38;4779219;29;124313;-92
2022/03/11 13:57:35;;;;;;;6.27;5.00;;;20.80;26.00;;;21.89;19.50;98583.44;4800475;29;125027;-93
2022/03/11 14:00:36;;;;;;;5.10;4.60;;;21.00;25.80;;;22.08;19.32;98576.69;4798033;29;114843;-91
2022/03/11 14:03:24;;;;;;;6.17;4.53;;;21.30;25.70;;;22.24;19.12;98574.38;4755785;29;114007;-92
2022/03/11 14:06:30;;;;;;;7.27;4.47;;;21.50;25.70;;;22.39;19.02;98570.41;4786172;29;123597;-92
2022/03/11 14:08:56;;;;;;;5.10;4.23;;;21.60;25.50;;;22.55;18.98;98566.44;4775020;29;122888;-94
2022/03/11 14:11:26;;;;;;;7.63;4.47;;;21.70;25.50;;;22.68;19.01;98559.22;4812397;29;114840;-94
2022/03/11 14:13:52;;;;;;;4.60;3.70;;;21.90;25.40;;;22.81;18.77;98557.63;4794918;29;112738;-94
2022/03/11 14:16:28;;;;;;;4.57;4.00;;;22.00;25.30;;;22.93;18.59;98553.59;4788673;29;124253;-93
2022/03/11 14:18:55;;;;;;;4.10;3.70;;;22.20;25.30;;;23.04;18.41;98545.19;4791211;29;123058;-93
2022/03/11 14:21:24;;;;;;;5.03;4.27;;;22.30;25.20;;;23.14;18.64;98547.22;4784005;29;113381;-92
2022/03/11 14:23:51;;;;;;;4.37;3.40;;;22.40;25.00;;;23.26;18.51;98543.16;4779983;29;114752;-92
2022/03/11 14:26:19;;;;;;;5.40;3.97;;;22.60;25.10;;;23.35;18.37;98544.38;4792709;29;124158;-96
2022/03/11 14:28:46;;;;;;;6.03;4.27;;;22.70;24.90;;;23.44;18.13;98543.94;4788541;29;123887;-93
2022/03/11 14:31:15;;;;;;;5.93;4.50;;;22.80;24.80;;;23.52;18.17;98539.91;4773177;29;114326;-93
2022/03/11 14:33:41;;;;;;;5.10;4.10;;;22.90;24.70;;;23.61;17.73;98536.66;4770909;29;113498;-94
2022/03/11 14:36:08;;;;;;;5.70;4.30;;;23.00;24.50;;;23.69;17.93;98534.63;4786531;29;123139;-92
2022/03/11 14:38:35;;;;;;;4.60;3.80;;;23.00;24.50;;;23.78;17.86;98529.41;4761757;29;124346;-91
2022/03/11 14:41:01;;;;;;;4.00;3.60;;;23.10;24.40;;;23.88;17.84;98527.75;4784420;29;114331;-92
2022/03/11 14:43:28;;;;;;;4.97;3.83;;;23.20;24.40;;;23.98;17.75;98524.88;4788503;29;114391;-91
2022/03/11 14:45:54;;;;;;;5.73;4.10;;;23.30;24.40;;;24.09;17.72;98526.88;4794617;29;124708;-92
2022/03/11 14:48:21;;;;;;;5.83;4.47;;;23.40;24.30;;;24.17;17.74;98528.44;4784583;29;123939;-93
2022/03/11 14:50:47;;;;;;;4.27;3.87;;;23.60;24.30;;;24.25;17.45;98530.00;4790086;29;114114;-93
2022/03/11 14:53:17;;;;;;;4.60;3.70;;;23.60;24.20;;;24.33;17.52;98522.31;4774975;29;113319;-93
2022/03/11 14:55:46;;;;;;;4.43;3.73;;;23.70;24.10;;;24.42;17.56;98525.47;4783240;29;123313;-92
2022/03/11 14:58:12;;;;;;;5.30;3.87;;;23.90;24.10;;;24.51;17.49;98520.22;4787209;29;123094;-90
2022/03/11 15:00:39;;;;;;;4.73;3.80;;;23.80;24.00;;;24.59;17.20;98515.31;4802986;29;114485;-92
2022/03/11 15:03:07;;;;;;;4.43;3.50;;;23.90;23.90;;;24.65;17.22;98508.81;4781615;29;114203;-93
2022/03/11 15:05:37;;;;;;;5.00;3.70;;;24.10;23.90;;;24.72;17.20;98507.16;4793752;29;123806;-93
2022/03/11 15:08:05;;;;;;;5.57;3.67;;;24.20;23.90;;;24.78;17.04;98505.50;4798119;29;123151;-93
2022/03/11 15:10:33;;;;;;;4.40;3.97;;;24.30;23.90;;;24.85;17.06;98502.59;4778312;29;113314;-92
2022/03/11 15:13:00;;;;;;;5.13;3.90;;;24.30;23.90;;;24.87;16.72;98498.13;4784376;29;113328;-93
2022/03/11 15:15:32;;;;;;;4.80;4.20;;;24.40;23.60;;;24.85;16.85;98496.94;4784319;29;123960;-91
2022/03/11 15:18:03;;;;;;;3.77;2.93;;;24.40;23.40;;;24.81;17.11;98501.84;4794991;29;124129;-91
2022/03/11 15:20:31;;;;;;;4.70;3.63;;;24.40;23.40;;;24.79;16.95;98496.59;4783438;29;114382;-91
2022/03/11 15:22:58;;;;;;;3.60;3.30;;;24.40;23.30;;;24.80;16.81;98492.56;4793254;29;113882;-92
2022/03/11 15:25:33;;;;;;;5.00;3.93;;;24.40;23.30;;;24.78;16.80;98489.34;4784223;29;124557;-91
2022/03/11 15:28:01;;;;;;;4.27;3.80;;;24.40;23.10;;;24.75;16.51;98495.03;4791375;29;124388;-93
2022/03/11 15:30:28;;;;;;;6.40;4.20;;;24.40;23.00;;;24.67;16.46;98495.09;4770112;29;114255;-92
2022/03/11 15:32:57;;;;;;;5.40;4.10;;;24.30;22.80;;;24.58;16.61;98500.41;4787441;29;114132;-90
2022/03/11 15:35:28;;;;;;;5.17;4.37;;;24.30;22.70;;;24.43;16.67;98510.16;4804117;29;124098;-92
2022/03/11 15:37:55;;;;;;;5.77;4.30;;;24.30;22.60;;;24.30;16.38;98507.00;4805297;29;124151;-92
2022/03/11 15:40:24;;;;;;;6.13;4.20;;;24.10;22.40;;;24.15;16.62;98500.63;4796380;29;113613;-92
2022/03/11 15:42:55;;;;;;;4.60;3.83;;;24.00;22.30;;;24.02;16.44;98503.09;4793794;29;113964;-91
2022/03/11 15:45:25;;;;;;;7.63;5.23;;;23.90;22.30;;;23.88;16.53;98514.44;4767136;29;123771;-92
2022/03/11 15:47:53;;;;;;;6.30;4.40;;;23.80;22.20;;;23.75;16.26;98514.09;4783448;29;124270;-90
2022/03/11 15:50:20;;;;;;;6.07;4.77;;;23.60;22.10;;;23.63;16.58;98520.13;4781290;29;115445;-91
2022/03/11 15:52:49;;;;;;;5.23;4.73;;;23.50;22.10;;;23.52;16.61;98516.53;4791123;29;114854;-92
2022/03/11 15:55:19;;;;;;;7.10;4.90;;;23.40;22.10;;;23.38;16.54;98518.19;4778896;29;124247;-94
2022/03/11 15:57:49;;;;;;;5.80;4.43;;;23.30;22.10;;;23.26;16.66;98515.78;4778984;29;124007;-92
2022/03/11 16:00:18;;;;;;;5.90;4.33;;;23.20;22.00;;;23.09;16.60;98519.44;4787280;29;115652;-90
2022/03/11 16:02:46;;;;;;;6.70;5.17;;;23.00;21.90;;;22.96;16.69;98526.66;4783604;29;113593;-90
2022/03/11 16:05:16;;;;;;;6.00;4.70;;;22.80;21.90;;;22.78;16.70;98518.97;4776194;29;124513;-92
2022/03/11 16:07:43;;;;;;;5.80;4.57;;;22.70;21.90;;;22.64;16.51;98511.31;4778815;29;123802;-93
2022/03/11 16:10:15;;;;;;;5.90;4.77;;;22.40;21.80;;;22.48;16.84;98528.59;4772476;29;114464;-91
2022/03/11 16:12:42;;;;;;;5.50;4.47;;;22.40;21.80;;;22.35;17.06;98529.38;4760164;29;113032;-92
2022/03/11 16:15:12;;;;;;;7.20;4.97;;;22.30;21.80;;;22.20;16.75;98523.72;4773743;29;124291;-92
2022/03/11 16:17:40;;;;;;;4.83;4.27;;;22.10;21.80;;;22.06;16.76;98529.28;4769619;29;123883;-92
2022/03/11 16:20:10;;;;;;;5.40;4.63;;;22.00;22.30;;;21.92;17.15;98530.00;4762945;29;114007;-94
2022/03/11 16:22:37;;;;;;;6.67;5.10;;;21.80;21.80;;;21.79;16.77;98537.19;4767238;29;114109;-93
2022/03/11 16:25:05;;;;;;;6.00;4.73;;;21.60;21.70;;;21.62;16.87;98533.84;4767499;29;124117;-92
2022/03/11 16:27:34;;;;;;;9.80;6.10;;;21.50;21.80;;;21.45;16.97;98531.75;4774079;29;122881;-91
2022/03/11 16:30:01;;;;;;;7.37;5.80;;;21.30;21.60;;;21.25;17.08;98536.84;4765882;29;114417;-91
2022/03/11 16:32:32;;;;;;;7.37;5.60;;;21.10;21.60;;;21.07;17.16;98542.31;4774766;29;113656;-91
2022/03/11 16:35:00;;;;;;;6.87;5.00;;;20.90;21.70;;;20.91;17.31;98541.78;4787996;29;124194;-92
2022/03/11 16:37:27;;;;;;;7.20;5.03;;;20.80;21.80;;;20.78;17.13;98546.88;4777350;29;124367;-92
2022/03/11 16:39:54;;;;;;;6.40;4.80;;;20.60;21.80;;;20.65;17.31;98545.53;4785190;29;115049;-91
2022/03/11 16:42:21;;;;;;;7.77;5.83;;;20.50;21.80;;;20.51;17.37;98549.78;4789443;29;115069;-91
2022/03/11 16:44:48;;;;;;;7.30;5.47;;;20.30;21.80;;;20.38;17.61;98556.84;4777564;29;123626;-90
2022/03/11 16:47:15;;;;;;;6.87;5.10;;;20.20;21.90;;;20.24;17.59;98557.50;4792584;29;123615;-89
2022/03/11 16:49:44;;;;;;;5.30;4.47;;;20.10;21.90;;;20.11;17.48;98558.94;4804444;29;115228;-91
2022/03/11 16:52:13;;;;;;;7.90;4.67;;;19.90;21.90;;;20.01;17.84;98573.66;4812771;29;117094;-89
2022/03/11 16:54:41;;;;;;;7.07;5.40;;;19.80;22.00;;;19.86;17.63;98565.06;4784157;29;124399;-90
2022/03/11 16:57:08;;;;;;;6.90;5.13;;;19.70;22.00;;;19.73;17.77;98572.09;4799579;29;123628;-85
2022/03/11 16:59:36;;;;;;;7.30;5.10;;;19.50;22.00;;;19.60;17.89;98567.88;4812755;29;114213;-91
2022/03/11 17:06:04;;;;;;;7.37;5.60;;;19.30;22.10;;;19.25;18.25;98574.53;4806523;29;124479;-90
2022/03/11 17:08:30;;;;;;;6.20;5.27;;;19.00;22.10;;;19.13;18.12;98583.16;4813019;29;124375;-92
2022/03/11 17:10:58;;;;;;;7.93;5.20;;;18.90;22.20;;;18.99;18.10;98578.09;4792521;29;113991;-93
2022/03/11 17:13:44;;;;;;;6.93;5.97;;;18.80;22.30;;;18.85;18.37;98573.06;4801935;29;112385;-92